< < Back
Terminal Aerodrome Forecast


Current Version              Previous Versions:   1  2  3  4  5  6  7  8  9  

Terminal Aerodrome Forecast

972
FTUS42 KGSP 311700
TAFAVL
TAF
KAVL 311720Z 3118/0118 14005KT P6SM VCSH SCT015 OVC050
      TEMPO 3118/3122 6SM -TSRA OVC015CB
     FM312200 14003KT P6SM -SHRA OVC060
     FM010800 00000KT 2SM -SHRA BR OVC007
     FM011100 00000KT P6SM -SHRA OVC003
     FM011300 VRB03KT P6SM -SHRA OVC007=

Latest METAR

534
SAUS70 KWBC 011200 RRX
MTRAVL
METAR KAVL 011154Z 06003KT 3SM BKN009 BKN018 OVC070 17/14 A3017 RMK AO2
SFC VIS 10 SLP198 60005 70032 T01720144 10172 20167


USA.gov is the U.S. government's official web portal to all federal, state and local government web resources and services.